createdAt,value
2023-02-02T00:02:46.134Z,16.07
2023-02-02T00:05:54.258Z,16.07
2023-02-02T00:08:57.951Z,16.07
2023-02-02T00:12:00.832Z,16.04
2023-02-02T00:15:02.311Z,16.03
2023-02-02T00:18:04.405Z,16.02
2023-02-02T00:21:05.901Z,16.00
2023-02-02T00:24:09.423Z,15.99
2023-02-02T00:27:10.875Z,15.97
2023-02-02T00:30:13.001Z,15.97
2023-02-02T00:33:14.493Z,15.98
2023-02-02T00:36:17.189Z,15.97
2023-02-02T00:39:26.081Z,15.99
2023-02-02T00:42:27.639Z,15.98
2023-02-02T00:45:29.455Z,16.00
2023-02-02T00:48:30.984Z,16.01
2023-02-02T00:51:32.504Z,16.01
2023-02-02T00:54:34.097Z,16.01
2023-02-02T00:57:35.655Z,16.02
2023-02-02T01:00:37.746Z,16.02
2023-02-02T01:03:39.228Z,16.01
2023-02-02T01:06:40.856Z,16.01
2023-02-02T01:09:43.092Z,16.00
2023-02-02T01:12:45.069Z,15.98
2023-02-02T01:15:47.230Z,15.97
2023-02-02T01:18:49.463Z,15.96
2023-02-02T01:21:51.141Z,15.94
2023-02-02T01:24:54.916Z,15.91
2023-02-02T01:27:57.309Z,15.88
2023-02-02T01:30:59.388Z,15.87
2023-02-02T01:34:00.917Z,15.85
2023-02-02T01:37:04.945Z,15.83
2023-02-02T01:40:07.438Z,15.81
2023-02-02T01:43:23.509Z,15.78
2023-02-02T01:46:30.709Z,15.76
2023-02-02T01:49:33.226Z,15.74
2023-02-02T01:52:35.659Z,15.73
2023-02-02T01:55:39.541Z,15.72
2023-02-02T01:58:42.807Z,15.72
2023-02-02T02:01:46.390Z,15.69
2023-02-02T02:04:50.343Z,15.68
2023-02-02T02:07:57.548Z,15.66
2023-02-02T02:10:59.410Z,15.65
2023-02-02T02:14:22.991Z,15.62
2023-02-02T02:17:30.455Z,15.64
2023-02-02T02:21:32.718Z,15.65
2023-02-02T02:25:00.244Z,15.64
2023-02-02T02:28:17.624Z,15.64
2023-02-02T02:31:55.971Z,15.64
2023-02-02T02:35:04.140Z,15.65
2023-02-02T02:38:27.105Z,15.65
2023-02-02T02:41:34.694Z,15.64
2023-02-02T02:44:36.539Z,15.61
2023-02-02T02:47:39.287Z,15.60
2023-02-02T02:50:41.038Z,15.59
2023-02-02T02:53:43.126Z,15.57
2023-02-02T02:56:52.891Z,15.55
2023-02-02T03:00:25.428Z,15.56
2023-02-02T03:03:37.170Z,15.55
2023-02-02T03:06:42.516Z,15.53
2023-02-02T03:09:46.479Z,15.53
2023-02-02T03:12:51.277Z,15.52
2023-02-02T03:15:53.444Z,15.52
2023-02-02T03:18:56.497Z,15.51
2023-02-02T03:21:57.974Z,15.50
2023-02-02T03:24:59.481Z,15.49
2023-02-02T03:28:01.297Z,15.47
2023-02-02T03:31:03.139Z,15.47
2023-02-02T03:34:04.743Z,15.45
2023-02-02T03:37:06.215Z,15.44
2023-02-02T03:40:08.519Z,15.43
2023-02-02T03:43:10.487Z,15.41
2023-02-02T03:46:12.017Z,15.39
2023-02-02T03:49:13.525Z,15.39
2023-02-02T03:52:14.988Z,15.38
2023-02-02T03:55:16.672Z,15.41
2023-02-02T03:58:18.219Z,15.42
2023-02-02T04:01:28.352Z,15.44
2023-02-02T04:04:29.852Z,15.44
2023-02-02T04:07:31.317Z,15.47
2023-02-02T04:10:32.790Z,15.48
2023-02-02T04:13:34.303Z,15.50
2023-02-02T04:16:37.611Z,15.52
2023-02-02T04:19:39.128Z,15.53
2023-02-02T04:22:40.648Z,15.55
2023-02-02T04:25:49.486Z,15.58
2023-02-02T04:28:51.804Z,15.60
2023-02-02T04:31:53.410Z,15.61
2023-02-02T04:34:54.889Z,15.64
2023-02-02T04:37:56.602Z,15.66
2023-02-02T04:40:58.074Z,15.70
2023-02-02T04:43:59.541Z,15.71
2023-02-02T04:47:01.072Z,15.73
2023-02-02T04:50:02.683Z,15.72
2023-02-02T04:53:04.965Z,15.73
2023-02-02T04:56:08.546Z,15.74
2023-02-02T04:59:10.056Z,15.74
2023-02-02T05:02:11.594Z,15.74
2023-02-02T05:05:14.389Z,15.76
2023-02-02T05:08:15.848Z,15.75
2023-02-02T05:11:22.870Z,15.75
2023-02-02T05:14:24.340Z,15.75
2023-02-02T05:17:25.781Z,15.72
2023-02-02T05:20:27.260Z,15.72
2023-02-02T05:23:29.473Z,15.69
2023-02-02T05:26:31.029Z,15.68
2023-02-02T05:29:32.573Z,15.68
2023-02-02T05:32:34.057Z,15.65
2023-02-02T05:35:35.575Z,15.62
2023-02-02T05:38:37.149Z,15.61
2023-02-02T05:41:38.773Z,15.58
2023-02-02T05:44:40.236Z,15.56
2023-02-02T05:47:41.751Z,15.54
2023-02-02T05:50:46.794Z,15.54
2023-02-02T05:53:48.428Z,15.53
2023-02-02T05:56:52.184Z,15.53
2023-02-02T05:59:54.406Z,15.55
2023-02-02T06:02:55.935Z,15.56
2023-02-02T06:05:57.468Z,15.58
2023-02-02T06:08:59.068Z,15.61
2023-02-02T06:12:00.539Z,15.61
2023-02-02T06:15:02.056Z,15.64
2023-02-02T06:18:06.050Z,15.65
2023-02-02T06:21:07.637Z,15.68
2023-02-02T06:24:09.264Z,15.70
2023-02-02T06:27:10.802Z,15.71
2023-02-02T06:30:13.504Z,15.70
2023-02-02T06:33:15.107Z,15.73
2023-02-02T06:36:16.657Z,15.73
2023-02-02T06:39:18.239Z,15.75
2023-02-02T06:42:21.915Z,15.75
2023-02-02T06:45:24.686Z,15.75
2023-02-02T06:48:27.327Z,15.75
2023-02-02T06:51:28.793Z,15.73
2023-02-02T06:54:30.341Z,15.71
2023-02-02T06:57:31.810Z,15.70
2023-02-02T07:00:36.260Z,15.69
2023-02-02T07:03:38.673Z,15.66
2023-02-02T07:06:40.244Z,15.64
2023-02-02T07:09:41.839Z,15.63
2023-02-02T07:12:43.321Z,15.59
2023-02-02T07:15:44.874Z,15.59
2023-02-02T07:18:48.235Z,15.57
2023-02-02T07:21:49.773Z,15.55
2023-02-02T07:24:51.248Z,15.54
2023-02-02T07:27:54.093Z,15.53
2023-02-02T07:30:55.754Z,15.51
2023-02-02T07:33:57.259Z,15.50
2023-02-02T07:36:58.867Z,15.48
2023-02-02T07:40:00.338Z,15.46
2023-02-02T07:43:02.456Z,15.43
2023-02-02T07:46:08.191Z,15.44
2023-02-02T07:49:16.205Z,15.41
2023-02-02T07:52:17.674Z,15.38
2023-02-02T07:55:19.558Z,15.38
2023-02-02T07:58:21.069Z,15.35
2023-02-02T08:01:26.008Z,15.35
2023-02-02T08:04:27.661Z,15.33
2023-02-02T08:07:29.237Z,15.31
2023-02-02T08:10:30.729Z,15.29
2023-02-02T08:13:32.275Z,15.28
2023-02-02T08:16:34.562Z,15.27
2023-02-02T08:19:36.149Z,15.24
2023-02-02T08:22:37.700Z,15.22
2023-02-02T08:25:40.023Z,15.21
2023-02-02T08:28:43.500Z,15.20
2023-02-02T08:31:45.477Z,15.18
2023-02-02T08:34:49.165Z,15.17
2023-02-02T08:37:50.721Z,15.15
2023-02-02T08:40:52.544Z,15.16
2023-02-02T08:43:54.093Z,15.16
2023-02-02T08:46:56.242Z,15.14
2023-02-02T08:49:57.773Z,15.14
2023-02-02T08:52:59.282Z,15.14
2023-02-02T08:56:07.672Z,15.14
2023-02-02T08:59:09.568Z,15.13
2023-02-02T09:02:13.781Z,15.14
2023-02-02T09:05:15.484Z,15.17
2023-02-02T09:08:17.082Z,15.19
2023-02-02T09:11:19.943Z,15.22
2023-02-02T09:14:21.447Z,15.25
2023-02-02T09:17:24.099Z,15.29
2023-02-02T09:20:25.744Z,15.32
2023-02-02T09:23:30.484Z,15.37
2023-02-02T09:26:32.149Z,15.39
2023-02-02T09:29:33.800Z,15.42
2023-02-02T09:32:35.370Z,15.45
2023-02-02T09:35:36.864Z,15.49
2023-02-02T09:38:39.338Z,15.52
2023-02-02T09:41:40.972Z,15.53
2023-02-02T09:45:08.377Z,15.57
2023-02-02T09:48:25.208Z,15.58
2023-02-02T09:51:33.601Z,15.60
2023-02-02T09:54:42.279Z,15.62
2023-02-02T09:57:51.037Z,15.62
2023-02-02T10:01:34.958Z,15.64
2023-02-02T10:04:40.236Z,15.64
2023-02-02T10:07:45.854Z,15.65
2023-02-02T10:10:50.271Z,15.65
2023-02-02T10:13:56.047Z,15.66
2023-02-02T10:17:03.394Z,15.66
2023-02-02T10:20:43.637Z,15.69
2023-02-02T10:23:46.005Z,15.66
2023-02-02T10:26:54.143Z,15.68
2023-02-02T10:30:00.950Z,15.65
2023-02-02T10:33:06.174Z,15.64
2023-02-02T10:36:26.660Z,15.64
2023-02-02T10:39:34.303Z,15.61
2023-02-02T10:43:23.960Z,15.62
2023-02-02T10:46:37.114Z,15.60
2023-02-02T10:49:40.703Z,15.59
2023-02-02T10:52:47.841Z,15.57
2023-02-02T10:55:52.422Z,15.37
2023-02-02T10:59:04.512Z,15.04
2023-02-02T11:02:20.443Z,14.75
2023-02-02T11:05:43.442Z,14.55
2023-02-02T11:08:47.436Z,14.44
2023-02-02T11:11:54.507Z,14.47
2023-02-02T11:15:01.654Z,14.56
2023-02-02T11:18:29.850Z,14.70
2023-02-02T11:21:33.156Z,14.81
2023-02-02T11:24:49.549Z,14.91
2023-02-02T11:27:51.571Z,14.98
2023-02-02T11:30:54.406Z,15.05
2023-02-02T11:34:17.016Z,15.13
2023-02-02T11:37:23.499Z,15.20
2023-02-02T11:40:46.092Z,15.25
2023-02-02T11:43:54.081Z,15.29
2023-02-02T11:46:57.330Z,15.32
2023-02-02T11:50:01.455Z,15.35
2023-02-02T11:53:03.804Z,15.35
2023-02-02T11:56:25.445Z,15.36
2023-02-02T11:59:26.971Z,15.33
2023-02-02T12:02:31.156Z,15.34
2023-02-02T12:05:36.667Z,15.29
2023-02-02T12:08:38.229Z,15.14
2023-02-02T12:12:28.115Z,14.97
2023-02-02T12:15:50.854Z,14.73
2023-02-02T12:19:16.949Z,14.59
2023-02-02T12:22:36.820Z,14.58
2023-02-02T12:26:02.787Z,14.67
2023-02-02T12:29:19.467Z,14.72
2023-02-02T12:32:53.293Z,14.78
2023-02-02T12:35:57.472Z,14.84
2023-02-02T12:39:25.192Z,14.89
2023-02-02T12:42:48.495Z,14.99
2023-02-02T12:46:10.785Z,15.05
2023-02-02T12:49:41.091Z,15.08
2023-02-02T12:53:04.484Z,15.09
2023-02-02T12:56:27.366Z,15.14
2023-02-02T12:59:42.766Z,15.18
2023-02-02T13:03:05.674Z,15.22
2023-02-02T13:06:39.994Z,15.26
2023-02-02T13:10:00.215Z,15.29
2023-02-02T13:13:08.864Z,15.34
2023-02-02T13:16:14.195Z,15.34
2023-02-02T13:19:28.115Z,15.38
2023-02-02T13:22:36.143Z,15.40
2023-02-02T13:25:46.600Z,15.41
2023-02-02T13:29:00.373Z,15.39
2023-02-02T13:32:17.314Z,15.42
2023-02-02T13:35:24.284Z,15.42
2023-02-02T13:38:31.493Z,15.42
2023-02-02T13:41:33.135Z,15.43
2023-02-02T13:44:44.790Z,15.44
2023-02-02T13:47:53.523Z,15.43
2023-02-02T13:51:13.509Z,15.42
2023-02-02T13:54:20.946Z,15.44
2023-02-02T13:57:56.902Z,15.47
2023-02-02T14:01:06.598Z,15.46
2023-02-02T14:04:21.667Z,15.47
2023-02-02T14:07:40.804Z,15.47
2023-02-02T14:10:56.376Z,15.47
2023-02-02T14:14:38.834Z,15.48
2023-02-02T14:17:40.238Z,15.47
2023-02-02T14:20:48.189Z,15.50
2023-02-02T14:23:51.128Z,15.48
2023-02-02T14:26:59.686Z,15.49
2023-02-02T14:30:01.399Z,15.47
2023-02-02T14:33:27.401Z,15.50
2023-02-02T14:36:30.208Z,15.49
2023-02-02T14:39:32.591Z,15.49
2023-02-02T14:43:35.303Z,15.51
2023-02-02T14:46:41.116Z,15.51
2023-02-02T14:49:42.627Z,15.51
2023-02-02T14:52:44.481Z,15.51
2023-02-02T14:56:08.955Z,15.54
2023-02-02T14:59:39.173Z,15.56
2023-02-02T15:02:41.913Z,15.57
2023-02-02T15:05:46.063Z,15.57
2023-02-02T15:09:19.835Z,15.61
2023-02-02T15:12:29.419Z,15.60
2023-02-02T15:15:36.054Z,15.60
2023-02-02T15:18:44.366Z,15.61
2023-02-02T15:21:49.151Z,15.61
2023-02-02T15:24:52.935Z,15.61
2023-02-02T15:28:30.037Z,15.62
2023-02-02T15:31:45.414Z,15.63
2023-02-02T15:34:50.813Z,15.64
2023-02-02T15:38:00.465Z,15.63
2023-02-02T15:41:14.491Z,15.62
2023-02-02T15:44:28.232Z,15.63
2023-02-02T15:47:41.296Z,15.64
2023-02-02T15:50:48.380Z,15.66
2023-02-02T15:53:51.830Z,15.69
2023-02-02T15:56:55.361Z,15.71
2023-02-02T15:59:57.745Z,15.74
2023-02-02T16:03:07.815Z,15.79
2023-02-02T16:06:09.928Z,15.84
2023-02-02T16:09:23.913Z,15.87
2023-02-02T16:12:26.050Z,15.90
2023-02-02T16:15:30.738Z,15.94
2023-02-02T16:18:32.990Z,15.96
2023-02-02T16:21:38.479Z,16.00
2023-02-02T16:24:44.078Z,16.03
2023-02-02T16:27:48.466Z,16.06
2023-02-02T16:30:53.695Z,16.06
2023-02-02T16:33:56.798Z,16.11
2023-02-02T16:37:13.442Z,16.15
2023-02-02T16:40:27.111Z,16.18
2023-02-02T16:43:29.736Z,16.13
2023-02-02T16:46:49.827Z,16.00
2023-02-02T16:50:09.980Z,15.80
2023-02-02T16:53:22.243Z,15.58
2023-02-02T16:56:32.853Z,15.53
2023-02-02T16:59:37.779Z,15.55
2023-02-02T17:02:44.848Z,15.60
2023-02-02T17:05:53.503Z,15.65
2023-02-02T17:08:54.970Z,15.70
2023-02-02T17:11:59.903Z,15.75
2023-02-02T17:15:23.908Z,15.81
2023-02-02T17:18:26.178Z,15.84
2023-02-02T17:21:27.778Z,15.89
2023-02-02T17:24:29.570Z,15.91
2023-02-02T17:27:34.125Z,15.96
2023-02-02T17:30:36.080Z,15.98
2023-02-02T17:33:38.070Z,16.02
2023-02-02T17:36:39.564Z,16.03
2023-02-02T17:39:41.051Z,16.04
2023-02-02T17:42:45.081Z,16.06
2023-02-02T17:45:47.274Z,16.07
2023-02-02T17:48:48.777Z,16.09
2023-02-02T17:51:50.660Z,16.14
2023-02-02T17:54:52.232Z,16.15
2023-02-02T17:57:54.036Z,16.17
2023-02-02T18:00:58.844Z,16.21
2023-02-02T18:04:00.459Z,16.24
2023-02-02T18:07:02.358Z,16.25
2023-02-02T18:10:06.216Z,16.27
2023-02-02T18:13:08.032Z,16.28
2023-02-02T18:16:11.005Z,16.29
2023-02-02T18:19:12.599Z,16.33
2023-02-02T18:22:14.083Z,16.37
2023-02-02T18:25:15.637Z,16.39
2023-02-02T18:28:17.937Z,16.41
2023-02-02T18:31:22.985Z,16.44
2023-02-02T18:34:24.855Z,16.46
2023-02-02T18:37:26.406Z,16.47
2023-02-02T18:40:27.875Z,16.48
2023-02-02T18:43:29.802Z,16.49
2023-02-02T18:46:33.784Z,16.50
2023-02-02T18:49:35.283Z,16.51
2023-02-02T18:52:36.774Z,16.55
2023-02-02T18:55:38.276Z,16.59
2023-02-02T18:58:40.224Z,16.61
2023-02-02T19:01:42.046Z,16.63
2023-02-02T19:05:04.271Z,16.67
2023-02-02T19:08:05.942Z,16.67
2023-02-02T19:11:15.274Z,16.69
2023-02-02T19:14:19.794Z,16.67
2023-02-02T19:17:24.420Z,16.66
2023-02-02T19:20:30.459Z,16.66
2023-02-02T19:23:33.080Z,16.64
2023-02-02T19:26:38.155Z,16.67
2023-02-02T19:29:39.651Z,16.68
2023-02-02T19:32:41.901Z,16.70
2023-02-02T19:35:45.586Z,16.73
2023-02-02T19:38:48.659Z,16.75
2023-02-02T19:41:54.020Z,16.77
2023-02-02T19:44:56.550Z,16.77
2023-02-02T19:48:01.256Z,16.77
2023-02-02T19:51:25.585Z,16.76
2023-02-02T19:54:42.169Z,16.76
2023-02-02T19:57:44.435Z,16.76
2023-02-02T20:00:47.771Z,16.80
2023-02-02T20:03:50.926Z,16.80
2023-02-02T20:06:59.472Z,16.83
2023-02-02T20:10:33.297Z,16.85
2023-02-02T20:13:48.368Z,16.86
2023-02-02T20:16:56.741Z,16.88
2023-02-02T20:19:59.845Z,16.89
2023-02-02T20:23:02.127Z,16.89
2023-02-02T20:26:15.495Z,16.89
2023-02-02T20:29:27.833Z,16.89
2023-02-02T20:32:38.480Z,16.89
2023-02-02T20:35:42.695Z,16.89
2023-02-02T20:38:44.950Z,16.90
2023-02-02T20:41:46.434Z,16.90
2023-02-02T20:44:48.357Z,16.92
2023-02-02T20:47:50.661Z,16.94
2023-02-02T20:50:52.212Z,16.94
2023-02-02T20:53:56.497Z,16.95
2023-02-02T20:56:58.267Z,16.95
2023-02-02T20:59:59.996Z,16.94
2023-02-02T21:03:01.478Z,16.96
2023-02-02T21:06:02.988Z,16.94
2023-02-02T21:09:06.094Z,16.96
2023-02-02T21:12:07.613Z,16.97
2023-02-02T21:15:09.758Z,16.98
2023-02-02T21:18:11.307Z,16.96
2023-02-02T21:21:14.184Z,16.94
2023-02-02T21:24:15.777Z,16.92
2023-02-02T21:27:17.640Z,16.92
2023-02-02T21:30:19.350Z,16.92
2023-02-02T21:33:20.981Z,16.92
2023-02-02T21:36:28.588Z,16.91
2023-02-02T21:39:35.317Z,16.90
2023-02-02T21:42:37.310Z,16.89
2023-02-02T21:45:39.076Z,16.90
2023-02-02T21:48:41.958Z,16.90
2023-02-02T21:51:43.483Z,16.89
2023-02-02T21:54:45.823Z,16.90
2023-02-02T21:57:47.304Z,16.88
2023-02-02T22:00:49.715Z,16.89
2023-02-02T22:03:51.402Z,16.87
2023-02-02T22:06:56.479Z,16.88
2023-02-02T22:09:57.993Z,16.86
2023-02-02T22:12:59.521Z,16.84
2023-02-02T22:16:01.910Z,16.83
2023-02-02T22:19:25.356Z,16.82
2023-02-02T22:22:32.553Z,16.79
2023-02-02T22:25:36.536Z,16.76
2023-02-02T22:28:42.680Z,16.73
2023-02-02T22:31:44.267Z,16.69
2023-02-02T22:34:45.794Z,16.66
2023-02-02T22:37:47.337Z,16.62
2023-02-02T22:40:49.901Z,16.60
2023-02-02T22:43:51.339Z,16.58
2023-02-02T22:46:52.827Z,16.56
2023-02-02T22:49:54.362Z,16.53
2023-02-02T22:52:55.955Z,16.51
2023-02-02T22:55:57.473Z,16.47
2023-02-02T22:59:01.294Z,16.45
2023-02-02T23:02:02.818Z,16.43
2023-02-02T23:05:05.272Z,16.40
2023-02-02T23:08:06.809Z,16.36
2023-02-02T23:11:08.256Z,16.36
2023-02-02T23:14:09.884Z,16.34
2023-02-02T23:17:11.320Z,16.29
2023-02-02T23:20:14.384Z,16.28
2023-02-02T23:23:15.945Z,16.26
2023-02-02T23:26:17.436Z,16.22
2023-02-02T23:29:18.894Z,16.20
2023-02-02T23:32:20.425Z,16.18
2023-02-02T23:35:21.905Z,16.17
2023-02-02T23:38:23.408Z,16.16
2023-02-02T23:41:24.843Z,16.13
2023-02-02T23:44:26.538Z,16.11
2023-02-02T23:47:28.139Z,16.09
2023-02-02T23:50:29.629Z,16.08
2023-02-02T23:53:31.199Z,16.07
2023-02-02T23:56:33.017Z,16.06
2023-02-02T23:59:34.463Z,16.03
